createdAt,value
2023-02-01T08:21:16.051Z,2.44
2023-02-01T08:23:44.590Z,1.81
2023-02-01T08:26:15.634Z,2.83
2023-02-01T08:28:45.751Z,2.79
2023-02-01T08:31:16.429Z,2.90
2023-02-01T08:33:45.960Z,3.01
2023-02-01T08:36:15.487Z,3.03
2023-02-01T08:38:43.695Z,3.09
2023-02-01T08:41:13.585Z,3.16
2023-02-01T08:43:42.113Z,2.76
2023-02-01T08:46:11.158Z,3.27
2023-02-01T08:48:39.932Z,2.86
2023-02-01T08:51:09.307Z,3.36
2023-02-01T08:53:39.397Z,3.48
2023-02-01T08:56:08.219Z,3.66
2023-02-01T08:58:36.291Z,3.71
2023-02-01T09:01:08.332Z,3.74
2023-02-01T09:03:36.456Z,3.79
2023-02-01T09:06:06.400Z,3.79
2023-02-01T09:08:35.321Z,3.81
2023-02-01T09:11:06.447Z,3.81
2023-02-01T09:13:34.789Z,3.82
2023-02-01T09:16:02.715Z,3.77
2023-02-01T09:18:30.764Z,3.50
2023-02-01T09:20:58.761Z,3.74
2023-02-01T09:23:26.931Z,3.73
2023-02-01T09:25:54.896Z,3.76
2023-02-01T09:28:24.187Z,3.88
2023-02-01T09:30:52.247Z,4.09
2023-02-01T09:33:22.617Z,4.12
2023-02-01T09:35:50.453Z,4.58
2023-02-01T09:38:18.321Z,4.58
2023-02-01T09:40:49.360Z,4.35
2023-02-01T09:43:28.472Z,4.07
2023-02-01T09:46:05.669Z,4.00
2023-02-01T09:48:37.162Z,4.03
2023-02-01T09:51:08.924Z,4.08
2023-02-01T09:53:40.801Z,4.20
2023-02-01T09:56:14.419Z,4.01
2023-02-01T09:58:49.686Z,4.17
2023-02-01T10:01:23.528Z,3.22
2023-02-01T10:03:52.619Z,4.16
2023-02-01T10:06:35.562Z,4.11
2023-02-01T10:09:18.225Z,4.27
2023-02-01T10:11:58.367Z,4.44
2023-02-01T10:14:46.839Z,4.75
2023-02-01T10:17:27.936Z,5.25
2023-02-01T10:20:05.389Z,5.52
2023-02-01T10:23:05.252Z,5.39
2023-02-01T10:25:37.949Z,6.14
2023-02-01T10:28:06.367Z,6.33
2023-02-01T10:30:44.112Z,7.64
2023-02-01T10:33:19.414Z,7.86
2023-02-01T10:35:48.498Z,8.32
2023-02-01T10:38:26.979Z,7.32
2023-02-01T10:40:57.443Z,8.02
2023-02-01T10:43:25.321Z,7.75
2023-02-01T10:45:54.627Z,7.04
2023-02-01T10:48:23.057Z,6.68
2023-02-01T10:50:57.628Z,6.52
2023-02-01T10:53:32.089Z,6.11
2023-02-01T10:56:00.209Z,6.26
2023-02-01T10:58:32.535Z,6.20
2023-02-01T11:01:04.404Z,6.01
2023-02-01T11:03:54.642Z,5.91
2023-02-01T11:06:29.410Z,5.93
2023-02-01T11:08:58.847Z,6.22
2023-02-01T11:11:27.851Z,6.59
2023-02-01T11:13:58.385Z,7.07
2023-02-01T11:16:35.840Z,7.57
2023-02-01T11:19:04.196Z,7.98
2023-02-01T11:21:32.419Z,7.99
2023-02-01T11:24:04.192Z,8.00
2023-02-01T11:26:35.249Z,7.70
2023-02-01T11:29:05.813Z,7.83
2023-02-01T11:31:36.999Z,8.01
2023-02-01T11:34:10.466Z,7.96
2023-02-01T11:36:39.170Z,8.14
2023-02-01T11:39:19.920Z,8.65
2023-02-01T11:42:00.641Z,8.61
2023-02-01T11:44:34.307Z,8.46
2023-02-01T11:47:26.246Z,8.52
2023-02-01T11:49:56.066Z,8.16
2023-02-01T11:52:41.700Z,8.30
2023-02-01T11:55:26.910Z,8.37
2023-02-01T11:58:07.986Z,7.95
2023-02-01T12:00:59.257Z,8.41
2023-02-01T12:04:15.931Z,8.89
2023-02-01T12:06:52.559Z,8.64
2023-02-01T12:09:53.043Z,8.34
2023-02-01T12:12:27.616Z,8.32
2023-02-01T12:15:07.718Z,8.38
2023-02-01T12:17:51.284Z,8.97
2023-02-01T12:20:46.217Z,8.85
2023-02-01T12:23:28.887Z,9.03
2023-02-01T12:26:06.951Z,8.61
2023-02-01T12:28:56.387Z,8.31
2023-02-01T12:31:39.305Z,8.14
2023-02-01T12:34:26.686Z,8.21
2023-02-01T12:37:02.700Z,7.90
2023-02-01T12:39:35.064Z,8.37
2023-02-01T12:42:11.199Z,8.12
2023-02-01T12:44:46.079Z,8.24
2023-02-01T12:47:20.580Z,8.12
2023-02-01T12:49:58.650Z,8.17
2023-02-01T12:52:38.147Z,8.27
2023-02-01T12:58:08.977Z,8.61
2023-02-01T13:00:42.035Z,8.61
2023-02-01T13:03:25.167Z,8.22
2023-02-01T13:05:58.431Z,8.19
2023-02-01T13:08:33.513Z,8.21
2023-02-01T13:11:06.026Z,7.60
2023-02-01T13:13:40.527Z,8.34
2023-02-01T13:16:19.059Z,8.37
2023-02-01T13:18:52.993Z,8.30
2023-02-01T13:21:26.612Z,8.53
2023-02-01T13:23:56.111Z,8.59
2023-02-01T13:26:24.068Z,8.46
2023-02-01T13:28:56.426Z,8.26
2023-02-01T13:31:41.462Z,7.73
2023-02-01T13:34:46.042Z,7.46
2023-02-01T13:37:39.825Z,7.62
2023-02-01T13:40:25.545Z,7.10
2023-02-01T13:42:56.536Z,7.05
2023-02-01T13:45:27.451Z,7.07
2023-02-01T13:47:58.271Z,7.11
2023-02-01T13:50:29.979Z,7.27
2023-02-01T13:53:00.390Z,7.28
2023-02-01T13:55:33.277Z,7.95
2023-02-01T13:58:06.273Z,7.88
2023-02-01T14:00:37.217Z,7.74
2023-02-01T14:03:23.887Z,8.12
2023-02-01T14:06:16.644Z,7.71
2023-02-01T14:08:48.334Z,7.33
2023-02-01T14:11:40.884Z,6.98
2023-02-01T14:14:42.928Z,6.74
2023-02-01T14:17:41.019Z,6.98
2023-02-01T14:20:50.175Z,7.09
2023-02-01T14:23:22.999Z,7.11
2023-02-01T14:26:09.754Z,7.05
2023-02-01T14:28:44.586Z,6.73
2023-02-01T14:31:34.320Z,6.88
2023-02-01T14:34:10.921Z,6.87
2023-02-01T14:36:45.212Z,6.58
2023-02-01T14:39:31.200Z,6.63
2023-02-01T14:42:03.409Z,6.60
2023-02-01T14:44:36.783Z,6.38
2023-02-01T14:47:23.372Z,6.58
2023-02-01T14:49:57.631Z,6.07
2023-02-01T14:52:34.784Z,6.42
2023-02-01T14:55:10.209Z,6.41
2023-02-01T14:57:42.071Z,6.39
2023-02-01T15:00:21.129Z,6.25
2023-02-01T15:02:52.019Z,6.12
2023-02-01T15:05:31.923Z,5.88
2023-02-01T15:08:04.680Z,5.94
2023-02-01T15:10:35.855Z,5.87
2023-02-01T15:13:03.796Z,5.70
2023-02-01T15:15:37.667Z,5.71
2023-02-01T15:18:06.127Z,5.85
2023-02-01T15:20:34.933Z,5.80
2023-02-01T15:23:06.448Z,5.76
2023-02-01T15:25:36.977Z,5.55
2023-02-01T15:28:07.058Z,5.64
2023-02-01T15:30:38.376Z,4.72
2023-02-01T15:33:08.659Z,5.34
2023-02-01T15:35:44.556Z,5.43
2023-02-01T15:38:21.812Z,5.41
2023-02-01T15:40:58.014Z,4.41
2023-02-01T15:43:27.298Z,5.38
2023-02-01T15:46:00.421Z,5.26
2023-02-01T15:48:31.557Z,5.30
2023-02-01T15:50:59.628Z,4.94
2023-02-01T15:53:32.467Z,5.26
2023-02-01T15:56:03.126Z,5.22
2023-02-01T15:58:32.881Z,5.21
2023-02-01T16:01:07.356Z,4.94
2023-02-01T16:03:39.398Z,5.08
2023-02-01T16:06:09.613Z,5.14
2023-02-01T16:08:38.757Z,5.15
2023-02-01T16:11:24.557Z,5.14
2023-02-01T16:13:52.440Z,4.77
2023-02-01T16:16:21.815Z,5.04
2023-02-01T16:18:49.987Z,4.74
2023-02-01T16:21:17.931Z,4.96
2023-02-01T16:23:46.838Z,5.12
2023-02-01T16:26:14.952Z,5.07
2023-02-01T16:28:43.178Z,5.01
2023-02-01T16:31:28.796Z,5.11
2023-02-01T16:34:18.280Z,4.72
2023-02-01T16:36:53.796Z,3.89
2023-02-01T16:39:25.794Z,5.08
2023-02-01T16:41:55.493Z,5.09
2023-02-01T16:44:32.389Z,5.10
2023-02-01T16:49:56.611Z,4.94
2023-02-01T16:52:29.700Z,4.99
2023-02-01T16:54:59.388Z,4.99
2023-02-01T16:57:32.062Z,4.91
2023-02-01T17:00:14.617Z,4.96
2023-02-01T17:02:52.855Z,5.13
2023-02-01T17:05:23.336Z,5.12
2023-02-01T17:07:59.106Z,5.12
2023-02-01T17:10:34.008Z,4.98
2023-02-01T17:13:03.134Z,5.01
2023-02-01T17:15:36.853Z,4.89
2023-02-01T17:18:05.347Z,4.32
2023-02-01T17:20:35.378Z,4.57
2023-02-01T17:23:05.297Z,4.90
2023-02-01T17:25:33.314Z,5.05
2023-02-01T17:28:01.578Z,5.03
2023-02-01T17:30:31.000Z,5.03
2023-02-01T17:33:02.102Z,5.05
2023-02-01T17:35:34.819Z,5.06
2023-02-01T17:38:02.773Z,4.98
2023-02-01T17:40:31.735Z,5.01
2023-02-01T17:42:59.688Z,5.01
2023-02-01T17:45:37.667Z,4.96
2023-02-01T17:48:07.023Z,4.90
2023-02-01T17:50:38.487Z,4.49
2023-02-01T17:53:09.937Z,4.85
2023-02-01T17:55:41.962Z,4.75
2023-02-01T17:58:12.723Z,4.59
2023-02-01T18:00:40.771Z,4.89
2023-02-01T18:03:16.172Z,4.74
2023-02-01T18:05:51.056Z,4.76
2023-02-01T18:08:21.727Z,4.60
2023-02-01T18:10:51.852Z,4.55
2023-02-01T18:13:20.038Z,4.37
2023-02-01T18:15:48.173Z,4.18
2023-02-01T18:18:16.099Z,4.06
2023-02-01T18:20:47.519Z,3.76
2023-02-01T18:23:21.936Z,3.06
2023-02-01T18:25:51.481Z,3.52
2023-02-01T18:28:20.580Z,3.40
2023-02-01T18:30:50.879Z,3.31
2023-02-01T18:33:21.098Z,3.30
2023-02-01T18:35:50.723Z,3.36
2023-02-01T18:38:18.697Z,2.98
2023-02-01T18:40:51.665Z,3.33
2023-02-01T18:43:19.827Z,3.26
2023-02-01T18:45:48.871Z,3.22
2023-02-01T18:48:19.513Z,3.25
2023-02-01T18:50:47.651Z,2.98
2023-02-01T18:53:20.045Z,3.12
2023-02-01T18:55:48.774Z,2.42
2023-02-01T18:58:18.572Z,3.15
2023-02-01T19:00:47.666Z,3.17
2023-02-01T19:03:16.804Z,3.14
2023-02-01T19:05:44.692Z,3.15
2023-02-01T19:08:12.566Z,3.14
2023-02-01T19:10:45.867Z,3.05
2023-02-01T19:13:14.363Z,3.01
2023-02-01T19:15:42.833Z,3.04
2023-02-01T19:18:11.783Z,3.02
2023-02-01T19:20:45.604Z,2.97
2023-02-01T19:23:13.972Z,2.94
2023-02-01T19:25:46.823Z,2.52
2023-02-01T19:28:14.776Z,2.78
2023-02-01T19:30:43.480Z,2.78
2023-02-01T19:33:11.705Z,2.72
2023-02-01T19:35:39.726Z,2.76
2023-02-01T19:38:11.804Z,2.37
2023-02-01T19:40:39.674Z,2.69
2023-02-01T19:43:09.276Z,2.69
2023-02-01T19:45:37.152Z,2.64
2023-02-01T19:48:07.742Z,2.51
2023-02-01T19:50:35.701Z,2.60
2023-02-01T19:53:03.583Z,2.13
2023-02-01T19:55:31.472Z,2.54
2023-02-01T19:57:59.786Z,2.51
2023-02-01T20:00:28.570Z,2.51
2023-02-01T20:02:56.530Z,2.55
2023-02-01T20:05:24.763Z,2.44
2023-02-01T20:07:52.874Z,2.75
2023-02-01T20:10:20.746Z,2.80
2023-02-01T20:12:49.653Z,2.22
2023-02-01T20:15:17.886Z,2.51
2023-02-01T20:17:47.200Z,2.84
2023-02-01T20:20:15.445Z,2.72
2023-02-01T20:22:45.944Z,2.70
2023-02-01T20:25:13.923Z,2.65
2023-02-01T20:27:42.655Z,2.82
2023-02-01T20:30:11.808Z,2.79
2023-02-01T20:32:39.703Z,2.91
2023-02-01T20:35:10.190Z,2.92
2023-02-01T20:37:38.174Z,2.96
2023-02-01T20:40:06.859Z,2.96
2023-02-01T20:42:36.082Z,3.02
2023-02-01T20:45:04.407Z,2.86
2023-02-01T20:47:32.733Z,2.96
2023-02-01T20:50:00.707Z,3.00
2023-02-01T20:52:30.046Z,2.97
2023-02-01T20:54:57.941Z,2.71
2023-02-01T20:57:26.293Z,2.91
2023-02-01T20:59:54.974Z,2.90
2023-02-01T21:02:22.967Z,2.75
2023-02-01T21:04:50.862Z,2.78
2023-02-01T21:07:18.832Z,2.93
2023-02-01T21:09:48.059Z,2.87
2023-02-01T21:12:15.981Z,2.90
2023-02-01T21:14:43.904Z,2.81
2023-02-01T21:17:11.912Z,2.74
2023-02-01T21:19:43.944Z,2.71
2023-02-01T21:22:12.682Z,2.54
2023-02-01T21:24:41.123Z,2.95
2023-02-01T21:27:10.845Z,2.99
2023-02-01T21:29:39.111Z,2.60
2023-02-01T21:32:07.858Z,3.00
2023-02-01T21:34:36.807Z,3.07
2023-02-01T21:37:05.005Z,2.46
2023-02-01T21:39:32.875Z,3.00
2023-02-01T21:42:17.595Z,3.04
2023-02-01T21:44:48.475Z,3.09
2023-02-01T21:47:17.928Z,3.12
2023-02-01T21:49:48.060Z,3.14
2023-02-01T21:52:17.555Z,3.02
2023-02-01T21:54:45.442Z,3.00
2023-02-01T21:57:13.806Z,3.17
2023-02-01T21:59:43.235Z,3.13
2023-02-01T22:02:16.219Z,3.12
2023-02-01T22:04:44.581Z,3.11
2023-02-01T22:07:13.051Z,3.12
2023-02-01T22:09:41.354Z,3.15
2023-02-01T22:12:13.052Z,3.25
2023-02-01T22:14:44.861Z,3.22
2023-02-01T22:17:14.373Z,2.99
2023-02-01T22:19:43.532Z,3.31
2023-02-01T22:22:12.689Z,3.33
2023-02-01T22:24:40.539Z,3.34
2023-02-01T22:27:14.136Z,3.67
2023-02-01T22:29:43.685Z,3.73
2023-02-01T22:32:14.013Z,3.39
2023-02-01T22:34:42.122Z,3.40
2023-02-01T22:37:11.253Z,3.50
2023-02-01T22:39:40.321Z,3.42
2023-02-01T22:42:08.228Z,3.42
2023-02-01T22:44:36.075Z,3.22
2023-02-01T22:47:04.077Z,3.38
2023-02-01T22:49:35.404Z,3.34
2023-02-01T22:52:03.422Z,3.25
2023-02-01T22:54:31.343Z,3.27
2023-02-01T22:57:00.295Z,3.30
2023-02-01T22:59:28.266Z,3.25
2023-02-01T23:01:56.120Z,3.10
2023-02-01T23:04:23.969Z,3.37
2023-02-01T23:06:54.032Z,3.36
2023-02-01T23:09:25.154Z,3.28
2023-02-01T23:11:53.492Z,3.55
2023-02-01T23:14:21.735Z,3.62
2023-02-01T23:16:50.913Z,3.40
2023-02-01T23:19:20.469Z,3.86
2023-02-01T23:21:48.670Z,3.91
2023-02-01T23:24:18.031Z,3.99
2023-02-01T23:26:45.962Z,4.38
2023-02-01T23:29:19.810Z,4.44
2023-02-01T23:31:47.924Z,4.55
2023-02-01T23:34:15.806Z,4.74
2023-02-01T23:36:43.818Z,4.89
2023-02-01T23:39:11.721Z,4.92
2023-02-01T23:41:41.166Z,4.60
2023-02-01T23:44:09.298Z,4.62
2023-02-01T23:46:39.038Z,4.42
2023-02-01T23:49:09.434Z,4.40
2023-02-01T23:51:37.938Z,4.06
2023-02-01T23:54:06.449Z,4.31
2023-02-01T23:56:36.203Z,4.34
2023-02-01T23:59:08.101Z,4.35
